Airport View

Enter AWOS ICAO identifier for current METAR.

ex. KFNL

KBFI 080353Z VRB04KT 10SM BKN033 BKN042 17/12 A3008 RMK AO2 RAE0255 SLP187 P0000 T01720122

8 Jul 2020 04:34

Phone: 206-763-6904

Other Area AWOS: KRNT - KSEA - KPWT - KTIW

TAF KBFI 072324Z 0800/0824 21008KT P6SM VCSH BKN035 BKN060 TEMPO 0800/0802 5SM -SHRA FM081100 21004KT P6SM OVC025 FM082100 20006KT P6SM BKN060